createdAt,value
2018-03-08T00:01:39.260Z,12.83
2018-03-08T00:04:07.098Z,12.82
2018-03-08T00:06:35.105Z,12.69
2018-03-08T00:09:03.085Z,12.56
2018-03-08T00:11:30.984Z,12.51
2018-03-08T00:13:58.905Z,12.34
2018-03-08T00:16:26.866Z,12.33
2018-03-08T00:18:54.827Z,12.57
2018-03-08T00:21:22.783Z,11.78
2018-03-08T00:23:50.704Z,11.17
2018-03-08T00:26:18.648Z,11.01
2018-03-08T00:28:46.632Z,10.89
2018-03-08T00:31:14.581Z,11.51
2018-03-08T00:33:42.533Z,11.95
2018-03-08T00:36:10.526Z,12.14
2018-03-08T00:38:38.489Z,11.76
2018-03-08T00:41:06.497Z,11.67
2018-03-08T00:43:34.338Z,11.88
2018-03-08T00:46:02.277Z,12.05
2018-03-08T00:48:30.144Z,12.06
2018-03-08T00:50:58.148Z,11.80
2018-03-08T00:53:26.042Z,11.71
2018-03-08T00:55:53.965Z,12.06
2018-03-08T00:58:21.924Z,12.12
2018-03-08T01:00:49.997Z,12.33
2018-03-08T01:03:18.468Z,12.35
2018-03-08T01:05:46.424Z,12.01
2018-03-08T01:08:14.413Z,12.19
2018-03-08T01:10:42.390Z,12.16
2018-03-08T01:13:10.310Z,12.14
2018-03-08T01:15:38.257Z,12.06
2018-03-08T01:18:06.265Z,12.04
2018-03-08T01:20:34.212Z,12.00
2018-03-08T01:23:02.173Z,12.16
2018-03-08T01:25:30.096Z,12.18
2018-03-08T01:27:58.045Z,12.14
2018-03-08T01:30:25.985Z,12.19
2018-03-08T01:32:53.937Z,12.18
2018-03-08T01:35:21.942Z,12.19
2018-03-08T01:37:49.825Z,12.13
2018-03-08T01:40:17.787Z,12.15
2018-03-08T01:42:45.734Z,12.15
2018-03-08T01:45:13.662Z,12.16
2018-03-08T01:47:41.647Z,12.16
2018-03-08T01:50:09.444Z,12.15
2018-03-08T01:52:37.352Z,12.12
2018-03-08T01:55:05.281Z,12.03
2018-03-08T01:57:33.217Z,11.99
2018-03-08T02:00:01.176Z,11.34
2018-03-08T02:02:29.149Z,10.69
2018-03-08T02:04:57.474Z,10.56
2018-03-08T02:07:25.378Z,10.66
2018-03-08T02:09:53.286Z,11.01
2018-03-08T02:12:21.238Z,11.53
2018-03-08T02:14:49.218Z,11.65
2018-03-08T02:17:17.297Z,11.90
2018-03-08T02:19:45.253Z,12.06
2018-03-08T02:22:13.253Z,11.52
2018-03-08T02:24:41.116Z,10.94
2018-03-08T02:27:09.076Z,11.06
2018-03-08T02:29:37.063Z,11.31
2018-03-08T02:32:04.987Z,11.56
2018-03-08T02:34:32.994Z,11.46
2018-03-08T02:37:00.988Z,11.56
2018-03-08T02:39:28.989Z,11.13
2018-03-08T02:41:56.916Z,11.66
2018-03-08T02:44:24.875Z,11.86
2018-03-08T02:46:52.825Z,11.87
2018-03-08T02:49:20.831Z,11.71
2018-03-08T02:51:48.761Z,11.85
2018-03-08T02:54:16.782Z,10.84
2018-03-08T02:56:44.701Z,10.92
2018-03-08T02:59:12.602Z,11.51
2018-03-08T03:01:40.558Z,11.56
2018-03-08T03:04:08.477Z,11.72
2018-03-08T03:06:36.713Z,11.63
2018-03-08T03:09:04.697Z,11.64
2018-03-08T03:11:32.549Z,10.98
2018-03-08T03:14:00.504Z,10.91
2018-03-08T03:16:28.430Z,11.35
2018-03-08T03:18:56.376Z,11.21
2018-03-08T03:21:24.430Z,11.04
2018-03-08T03:23:52.489Z,11.04
2018-03-08T03:26:20.491Z,10.98
2018-03-08T03:28:48.412Z,11.05
2018-03-08T03:31:16.342Z,10.96
2018-03-08T03:33:44.256Z,10.61
2018-03-08T03:36:12.142Z,11.01
2018-03-08T03:38:40.074Z,11.20
2018-03-08T03:41:07.973Z,11.28
2018-03-08T03:43:35.914Z,11.42
2018-03-08T03:46:03.896Z,11.18
2018-03-08T03:48:31.891Z,11.05
2018-03-08T03:50:59.809Z,10.93
2018-03-08T03:53:27.774Z,11.07
2018-03-08T03:55:55.719Z,11.13
2018-03-08T03:58:23.690Z,11.23
2018-03-08T04:00:51.651Z,10.75
2018-03-08T04:03:19.662Z,11.07
2018-03-08T04:05:47.613Z,11.26
2018-03-08T04:08:16.000Z,11.36
2018-03-08T04:10:43.952Z,11.42
2018-03-08T04:13:11.928Z,11.28
2018-03-08T04:15:39.853Z,10.81
2018-03-08T04:18:07.795Z,10.51
2018-03-08T04:20:35.767Z,10.89
2018-03-08T04:23:03.812Z,11.23
2018-03-08T04:25:31.671Z,11.24
2018-03-08T04:27:59.641Z,11.26
2018-03-08T04:30:27.634Z,11.35
2018-03-08T04:32:55.525Z,11.22
2018-03-08T04:35:23.510Z,11.04
2018-03-08T04:37:51.433Z,10.69
2018-03-08T04:40:19.397Z,10.29
2018-03-08T04:42:47.362Z,9.97
2018-03-08T04:45:15.304Z,9.87
2018-03-08T04:47:43.196Z,10.11
2018-03-08T04:50:11.294Z,9.91
2018-03-08T04:52:39.220Z,9.79
2018-03-08T04:55:07.157Z,9.96
2018-03-08T04:57:35.118Z,10.46
2018-03-08T05:00:03.120Z,10.63
2018-03-08T05:02:31.110Z,10.46
2018-03-08T05:04:59.055Z,10.12
2018-03-08T05:07:26.944Z,9.62
2018-03-08T05:09:55.114Z,10.13
2018-03-08T05:12:23.045Z,10.13
2018-03-08T05:14:51.013Z,10.15
2018-03-08T05:17:18.986Z,9.98
2018-03-08T05:19:46.931Z,10.25
2018-03-08T05:22:14.841Z,10.42
2018-03-08T05:24:42.855Z,10.51
2018-03-08T05:27:10.853Z,10.68
2018-03-08T05:29:38.766Z,10.92
2018-03-08T05:32:06.775Z,11.19
2018-03-08T05:34:34.656Z,11.27
2018-03-08T05:37:02.642Z,11.24
2018-03-08T05:39:30.612Z,10.84
2018-03-08T05:41:58.544Z,10.83
2018-03-08T05:44:26.458Z,10.94
2018-03-08T05:46:54.330Z,11.12
2018-03-08T05:49:22.294Z,11.23
2018-03-08T05:51:50.350Z,11.25
2018-03-08T05:54:18.184Z,11.20
2018-03-08T05:56:46.085Z,11.13
2018-03-08T05:59:14.065Z,11.24
2018-03-08T06:01:41.999Z,11.42
2018-03-08T06:04:09.894Z,11.55
2018-03-08T06:06:37.857Z,11.40
2018-03-08T06:09:05.788Z,11.34
2018-03-08T06:11:34.211Z,11.48
2018-03-08T06:14:02.133Z,11.54
2018-03-08T06:16:30.105Z,11.66
2018-03-08T06:18:57.988Z,11.58
2018-03-08T06:21:25.935Z,11.81
2018-03-08T06:23:53.897Z,12.00
2018-03-08T06:26:21.890Z,12.25
2018-03-08T06:28:50.498Z,13.13
2018-03-08T06:31:18.879Z,12.15
2018-03-08T06:33:46.848Z,11.79
2018-03-08T06:36:14.745Z,11.69
2018-03-08T06:38:42.667Z,11.60
2018-03-08T06:41:10.600Z,11.49
2018-03-08T06:43:38.631Z,11.81
2018-03-08T06:46:06.567Z,11.76
2018-03-08T06:48:34.585Z,11.35
2018-03-08T06:51:02.556Z,11.55
2018-03-08T06:53:30.502Z,11.29
2018-03-08T06:55:58.510Z,11.16
2018-03-08T06:58:26.468Z,11.39
2018-03-08T07:00:54.375Z,11.22
2018-03-08T07:03:22.304Z,11.15
2018-03-08T07:05:50.217Z,11.20
2018-03-08T07:08:18.199Z,10.54
2018-03-08T07:10:46.158Z,10.64
2018-03-08T07:13:14.246Z,10.27
2018-03-08T07:15:42.252Z,10.22
2018-03-08T07:18:10.204Z,10.55
2018-03-08T07:20:38.142Z,10.92
2018-03-08T07:23:06.103Z,10.66
2018-03-08T07:25:34.056Z,10.93
2018-03-08T07:28:02.058Z,10.68
2018-03-08T07:30:30.012Z,10.51
2018-03-08T07:32:57.974Z,10.89
2018-03-08T07:35:25.901Z,11.11
2018-03-08T07:37:53.824Z,11.29
2018-03-08T07:40:21.717Z,11.74
2018-03-08T07:42:49.621Z,11.67
2018-03-08T07:45:17.553Z,11.04
2018-03-08T07:47:45.562Z,11.38
2018-03-08T07:50:13.589Z,11.32
2018-03-08T07:52:41.664Z,11.95
2018-03-08T07:55:11.847Z,11.58
2018-03-08T07:57:39.854Z,11.52
2018-03-08T08:00:07.802Z,11.18
2018-03-08T08:02:35.674Z,11.90
2018-03-08T08:05:15.394Z,11.91
2018-03-08T08:07:55.200Z,11.92
2018-03-08T08:10:23.126Z,12.01
2018-03-08T08:12:51.123Z,12.01
2018-03-08T08:15:20.882Z,12.21
2018-03-08T08:17:49.376Z,12.41
2018-03-08T08:20:17.759Z,12.07
2018-03-08T08:22:46.045Z,12.31
2018-03-08T08:25:14.295Z,12.61
2018-03-08T08:27:42.647Z,12.39
2018-03-08T08:30:11.059Z,12.20
2018-03-08T08:32:39.446Z,12.24
2018-03-08T08:35:07.709Z,12.53
2018-03-08T08:37:36.197Z,12.99
2018-03-08T08:40:04.578Z,12.47
2018-03-08T08:42:33.058Z,12.32
2018-03-08T08:45:01.317Z,12.67
2018-03-08T08:47:29.711Z,12.98
2018-03-08T08:49:57.889Z,13.08
2018-03-08T08:52:26.261Z,13.41
2018-03-08T08:54:54.547Z,13.12
2018-03-08T08:57:23.023Z,13.14
2018-03-08T08:59:51.562Z,13.48
2018-03-08T09:02:20.006Z,13.12
2018-03-08T09:04:48.471Z,13.34
2018-03-08T09:07:17.128Z,13.11
2018-03-08T09:09:45.421Z,13.31
2018-03-08T09:12:13.797Z,13.49
2018-03-08T09:14:42.070Z,14.24
2018-03-08T09:17:11.602Z,14.14
2018-03-08T09:19:39.949Z,13.53
2018-03-08T09:22:08.229Z,13.39
2018-03-08T09:24:36.613Z,13.55
2018-03-08T09:27:05.189Z,13.35
2018-03-08T09:29:33.657Z,13.19
2018-03-08T09:32:01.945Z,13.74
2018-03-08T09:34:30.738Z,14.43
2018-03-08T09:36:59.095Z,13.84
2018-03-08T09:39:28.534Z,13.93
2018-03-08T09:41:56.994Z,14.75
2018-03-08T09:44:25.469Z,15.07
2018-03-08T09:46:53.911Z,15.10
2018-03-08T09:49:22.278Z,14.99
2018-03-08T09:51:50.567Z,15.42
2018-03-08T09:54:18.828Z,14.50
2018-03-08T09:56:47.166Z,14.90
2018-03-08T09:59:15.158Z,14.52
2018-03-08T10:01:43.613Z,14.71
2018-03-08T10:04:11.515Z,14.18
2018-03-08T10:06:39.462Z,14.66
2018-03-08T10:09:07.453Z,14.33
2018-03-08T10:11:35.417Z,14.47
2018-03-08T10:14:03.304Z,14.65
2018-03-08T10:16:31.250Z,15.36
2018-03-08T10:18:59.898Z,15.75
2018-03-08T10:21:44.407Z,15.89
2018-03-08T10:23:56.144Z,16.45
2018-03-08T10:26:24.072Z,16.21
2018-03-08T10:28:52.037Z,15.25
2018-03-08T10:31:19.993Z,15.37
2018-03-08T10:33:47.972Z,16.24
2018-03-08T10:36:15.963Z,16.72
2018-03-08T10:38:43.920Z,17.35
2018-03-08T10:41:11.898Z,17.78
2018-03-08T10:43:39.846Z,17.71
2018-03-08T10:46:07.851Z,17.27
2018-03-08T10:48:35.790Z,16.99
2018-03-08T10:51:03.692Z,17.20
2018-03-08T10:53:31.654Z,17.15
2018-03-08T10:55:59.620Z,16.92
2018-03-08T10:58:27.606Z,16.83
2018-03-08T11:00:55.564Z,17.36
2018-03-08T11:03:29.084Z,17.66
2018-03-08T11:05:57.052Z,18.56
2018-03-08T11:08:25.112Z,18.78
2018-03-08T11:10:53.070Z,18.70
2018-03-08T11:13:21.084Z,18.05
2018-03-08T11:15:49.072Z,17.61
2018-03-08T11:18:16.969Z,16.93
2018-03-08T11:20:45.165Z,16.81
2018-03-08T11:23:13.161Z,16.75
2018-03-08T11:25:41.116Z,16.89
2018-03-08T11:28:09.075Z,17.16
2018-03-08T11:30:37.112Z,17.57
2018-03-08T11:33:05.070Z,16.90
2018-03-08T11:35:33.078Z,16.53
2018-03-08T11:38:00.997Z,15.88
2018-03-08T11:40:28.962Z,16.05
2018-03-08T11:42:56.842Z,15.87
2018-03-08T11:45:24.829Z,15.51
2018-03-08T11:47:52.782Z,15.53
2018-03-08T11:50:21.852Z,15.94
2018-03-08T11:52:48.780Z,14.94
2018-03-08T11:55:16.725Z,15.38
2018-03-08T11:57:44.668Z,15.37
2018-03-08T12:00:12.647Z,15.19
2018-03-08T12:02:40.678Z,15.28
2018-03-08T12:05:08.581Z,15.80
2018-03-08T12:07:36.484Z,16.13
2018-03-08T12:10:04.472Z,16.06
2018-03-08T12:12:32.404Z,15.29
2018-03-08T12:15:00.334Z,15.66
2018-03-08T12:17:28.250Z,15.42
2018-03-08T12:19:56.375Z,15.32
2018-03-08T12:22:24.861Z,15.40
2018-03-08T12:24:52.721Z,15.22
2018-03-08T12:27:20.661Z,14.90
2018-03-08T12:29:48.604Z,15.65
2018-03-08T12:32:16.950Z,14.92
2018-03-08T12:34:45.526Z,14.83
2018-03-08T12:37:13.490Z,15.79
2018-03-08T12:39:41.419Z,15.68
2018-03-08T12:42:09.322Z,16.04
2018-03-08T12:44:37.315Z,15.95
2018-03-08T12:47:05.246Z,15.86
2018-03-08T12:49:33.136Z,16.29
2018-03-08T12:52:01.101Z,17.03
2018-03-08T12:54:29.006Z,17.39
2018-03-08T12:56:56.913Z,18.19
2018-03-08T12:59:24.994Z,16.99
2018-03-08T13:01:52.885Z,17.51
2018-03-08T13:04:20.894Z,17.85
2018-03-08T13:06:48.842Z,18.53
2018-03-08T13:09:16.794Z,19.09
2018-03-08T13:11:44.790Z,19.26
2018-03-08T13:14:12.769Z,18.66
2018-03-08T13:16:40.720Z,18.06
2018-03-08T13:19:08.720Z,17.95
2018-03-08T13:21:36.637Z,17.34
2018-03-08T13:24:04.996Z,18.19
2018-03-08T13:26:33.068Z,18.46
2018-03-08T13:29:00.985Z,18.58
2018-03-08T13:31:28.931Z,18.94
2018-03-08T13:33:56.862Z,18.78
2018-03-08T13:36:24.751Z,18.10
2018-03-08T13:38:52.723Z,17.82
2018-03-08T13:41:20.665Z,18.05
2018-03-08T13:43:48.547Z,18.74
2018-03-08T13:46:16.514Z,19.38
2018-03-08T13:48:44.460Z,19.11
2018-03-08T13:51:12.402Z,18.91
2018-03-08T13:53:40.309Z,19.62
2018-03-08T13:56:08.186Z,19.32
2018-03-08T13:58:36.087Z,19.62
2018-03-08T14:01:04.099Z,18.96
2018-03-08T14:03:32.054Z,18.64
2018-03-08T14:06:00.038Z,19.11
2018-03-08T14:08:27.888Z,18.66
2018-03-08T14:10:55.843Z,17.91
2018-03-08T14:13:23.790Z,18.51
2018-03-08T14:15:51.916Z,18.48
2018-03-08T14:18:19.806Z,17.41
2018-03-08T14:20:47.773Z,17.05
2018-03-08T14:23:15.757Z,16.42
2018-03-08T14:25:44.222Z,16.70
2018-03-08T14:28:12.195Z,16.68
2018-03-08T14:30:40.084Z,15.99
2018-03-08T14:33:08.059Z,15.71
2018-03-08T14:35:35.997Z,17.75
2018-03-08T14:38:03.978Z,17.88
2018-03-08T14:40:31.940Z,17.59
2018-03-08T14:42:59.974Z,18.03
2018-03-08T14:45:27.873Z,17.14
2018-03-08T14:47:55.832Z,16.99
2018-03-08T14:50:23.794Z,16.75
2018-03-08T14:52:51.629Z,16.35
2018-03-08T14:55:19.516Z,16.56
2018-03-08T14:57:47.507Z,15.82
2018-03-08T15:00:15.472Z,15.35
2018-03-08T15:02:43.424Z,15.59
2018-03-08T15:05:11.377Z,14.99
2018-03-08T15:07:39.278Z,15.17
2018-03-08T15:10:07.269Z,14.07
2018-03-08T15:12:35.249Z,14.69
2018-03-08T15:15:03.221Z,14.39
2018-03-08T15:17:31.205Z,15.00
2018-03-08T15:20:00.228Z,15.48
2018-03-08T15:22:28.179Z,15.42
2018-03-08T15:24:56.138Z,15.66
2018-03-08T15:27:24.852Z,15.09
2018-03-08T15:29:52.802Z,14.78
2018-03-08T15:32:20.683Z,15.45
2018-03-08T15:34:48.585Z,15.35
2018-03-08T15:37:16.477Z,15.35
2018-03-08T15:39:44.353Z,15.47
2018-03-08T15:42:12.330Z,15.47
2018-03-08T15:44:40.297Z,15.38
2018-03-08T15:47:08.212Z,15.59
2018-03-08T15:49:36.117Z,15.67
2018-03-08T15:52:04.056Z,15.58
2018-03-08T15:54:32.504Z,15.29
2018-03-08T15:57:00.671Z,15.63
2018-03-08T15:59:29.059Z,15.60
2018-03-08T16:01:57.419Z,15.63
2018-03-08T16:04:25.723Z,15.42
2018-03-08T16:10:31.448Z,14.37
2018-03-08T16:12:59.858Z,14.92
2018-03-08T16:15:28.546Z,14.90
2018-03-08T16:17:57.216Z,14.94
2018-03-08T16:20:25.514Z,14.98
2018-03-08T16:22:53.732Z,14.81
2018-03-08T16:25:21.886Z,14.93
2018-03-08T16:27:50.843Z,14.53
2018-03-08T16:30:19.024Z,13.83
2018-03-08T16:32:47.396Z,14.02
2018-03-08T16:35:15.586Z,13.67
2018-03-08T16:37:44.262Z,13.71
2018-03-08T16:40:12.616Z,14.12
2018-03-08T16:42:40.561Z,14.27
2018-03-08T16:45:08.453Z,14.17
2018-03-08T16:47:36.366Z,14.13
2018-03-08T16:50:04.353Z,13.85
2018-03-08T16:52:32.333Z,13.78
2018-03-08T16:55:00.281Z,13.92
2018-03-08T16:57:28.321Z,14.04
2018-03-08T16:59:56.241Z,14.06
2018-03-08T17:02:24.178Z,14.00
2018-03-08T17:04:52.150Z,13.96
2018-03-08T17:07:20.050Z,13.91
2018-03-08T17:09:47.999Z,12.93
2018-03-08T17:12:15.974Z,13.31
2018-03-08T17:14:44.118Z,13.47
2018-03-08T17:17:12.321Z,13.35
2018-03-08T17:19:40.307Z,13.39
2018-03-08T17:22:08.258Z,13.35
2018-03-08T17:24:36.219Z,12.65
2018-03-08T17:27:04.188Z,13.00
2018-03-08T17:29:32.414Z,13.16
2018-03-08T17:32:00.330Z,12.68
2018-03-08T17:34:28.273Z,12.83
2018-03-08T17:36:56.228Z,12.54
2018-03-08T17:39:24.117Z,12.66
2018-03-08T17:41:52.102Z,12.54
2018-03-08T17:44:20.061Z,12.53
2018-03-08T17:46:48.017Z,12.58
2018-03-08T17:49:16.008Z,12.64
2018-03-08T17:51:43.945Z,12.60
2018-03-08T17:54:11.809Z,12.52
2018-03-08T17:56:39.745Z,12.38
2018-03-08T17:59:07.709Z,12.26
2018-03-08T18:01:35.687Z,11.29
2018-03-08T18:04:03.610Z,11.74
2018-03-08T18:06:31.593Z,12.02
2018-03-08T18:08:59.484Z,11.36
2018-03-08T18:11:27.763Z,11.09
2018-03-08T18:13:56.157Z,10.51
2018-03-08T18:16:24.371Z,10.47
2018-03-08T18:18:52.803Z,10.94
2018-03-08T18:21:21.599Z,11.26
2018-03-08T18:23:49.635Z,11.71
2018-03-08T18:26:17.554Z,11.89
2018-03-08T18:28:45.492Z,11.69
2018-03-08T18:31:13.763Z,11.45
2018-03-08T18:33:41.698Z,11.75
2018-03-08T18:36:09.702Z,11.95
2018-03-08T18:38:37.600Z,11.86
2018-03-08T18:41:05.509Z,11.70
2018-03-08T18:43:33.558Z,11.48
2018-03-08T18:46:01.465Z,11.13
2018-03-08T18:48:29.382Z,11.20
2018-03-08T18:50:57.347Z,10.50
2018-03-08T18:53:25.295Z,10.49
2018-03-08T18:55:53.242Z,10.99
2018-03-08T18:58:26.302Z,11.11
2018-03-08T19:00:54.292Z,10.62
2018-03-08T19:03:22.361Z,11.29
2018-03-08T19:05:50.273Z,11.21
2018-03-08T19:08:18.381Z,11.51
2018-03-08T19:10:46.386Z,11.48
2018-03-08T19:13:14.324Z,11.56
2018-03-08T19:15:42.281Z,11.41
2018-03-08T19:18:10.216Z,11.63
2018-03-08T19:20:38.098Z,11.51
2018-03-08T19:23:06.067Z,11.45
2018-03-08T19:25:33.985Z,11.62
2018-03-08T19:28:01.905Z,11.43
2018-03-08T19:30:29.864Z,11.01
2018-03-08T19:32:58.100Z,11.15
2018-03-08T19:35:26.033Z,11.10
2018-03-08T19:37:53.995Z,11.16
2018-03-08T19:40:21.897Z,10.97
2018-03-08T19:42:49.809Z,11.07
2018-03-08T19:45:17.765Z,10.76
2018-03-08T19:47:45.686Z,9.67
2018-03-08T19:50:13.635Z,9.98
2018-03-08T19:52:41.469Z,9.47
2018-03-08T19:55:09.511Z,9.76
2018-03-08T19:57:37.423Z,9.50
2018-03-08T20:00:05.408Z,9.20
2018-03-08T20:02:33.353Z,9.29
2018-03-08T20:05:01.278Z,9.72
2018-03-08T20:07:29.237Z,9.49
2018-03-08T20:09:57.239Z,9.02
2018-03-08T20:12:25.184Z,9.33
2018-03-08T20:14:53.134Z,9.69
2018-03-08T20:17:21.125Z,9.20
2018-03-08T20:19:49.055Z,9.02
2018-03-08T20:22:16.961Z,8.66
2018-03-08T20:24:44.968Z,9.17
2018-03-08T20:27:12.958Z,8.43
2018-03-08T20:29:41.051Z,9.04
2018-03-08T20:32:09.022Z,9.27
2018-03-08T20:34:37.406Z,9.22
2018-03-08T20:37:05.449Z,9.01
2018-03-08T20:39:33.367Z,9.06
2018-03-08T20:42:01.361Z,8.90
2018-03-08T20:44:29.333Z,9.80
2018-03-08T20:46:57.229Z,9.61
2018-03-08T20:49:25.170Z,10.14
2018-03-08T20:51:53.135Z,9.42
2018-03-08T20:54:21.182Z,10.10
2018-03-08T20:56:49.093Z,10.42
2018-03-08T20:59:17.118Z,10.11
2018-03-08T21:01:45.093Z,9.51
2018-03-08T21:04:13.095Z,9.64
2018-03-08T21:06:41.040Z,10.27
2018-03-08T21:09:09.076Z,9.75
2018-03-08T21:11:36.990Z,10.33
2018-03-08T21:14:04.934Z,10.43
2018-03-08T21:16:32.821Z,9.86
2018-03-08T21:19:00.818Z,9.08
2018-03-08T21:21:28.743Z,9.44
2018-03-08T21:23:56.706Z,9.62
2018-03-08T21:26:24.613Z,9.78
2018-03-08T21:28:52.653Z,9.87
2018-03-08T21:31:20.613Z,9.65
2018-03-08T21:33:48.516Z,9.81
2018-03-08T21:36:16.877Z,10.09
2018-03-08T21:38:44.800Z,9.93
2018-03-08T21:41:12.729Z,10.09
2018-03-08T21:43:40.660Z,8.89
2018-03-08T21:46:08.545Z,9.30
2018-03-08T21:48:36.528Z,9.60
2018-03-08T21:51:04.478Z,9.57
2018-03-08T21:53:32.426Z,9.47
2018-03-08T21:56:00.393Z,10.05
2018-03-08T21:58:28.334Z,10.01
2018-03-08T22:00:56.262Z,10.00
2018-03-08T22:03:24.200Z,10.28
2018-03-08T22:05:52.110Z,10.25
2018-03-08T22:08:20.070Z,10.45
2018-03-08T22:10:47.996Z,10.15
2018-03-08T22:13:15.898Z,10.50
2018-03-08T22:15:43.897Z,10.55
2018-03-08T22:18:11.812Z,10.65
2018-03-08T22:20:39.770Z,10.58
2018-03-08T22:23:07.843Z,10.71
2018-03-08T22:25:35.804Z,10.72
2018-03-08T22:28:03.736Z,10.67
2018-03-08T22:30:31.695Z,10.36
2018-03-08T22:32:59.688Z,10.19
2018-03-08T22:35:27.609Z,10.48
2018-03-08T22:37:55.991Z,10.64
2018-03-08T22:40:23.886Z,10.75
2018-03-08T22:42:51.891Z,10.23
2018-03-08T22:45:19.813Z,9.49
2018-03-08T22:47:47.775Z,9.17
2018-03-08T22:50:15.692Z,9.82
2018-03-08T22:52:43.606Z,10.24
2018-03-08T22:55:11.584Z,9.60
2018-03-08T22:57:39.528Z,9.56
2018-03-08T23:00:07.548Z,10.16
2018-03-08T23:02:35.501Z,10.06
2018-03-08T23:05:03.453Z,10.30
2018-03-08T23:07:31.360Z,10.24
2018-03-08T23:09:59.252Z,10.37
2018-03-08T23:12:27.242Z,10.36
2018-03-08T23:14:55.176Z,9.10
2018-03-08T23:17:23.073Z,9.46
2018-03-08T23:19:50.993Z,9.71
2018-03-08T23:22:18.908Z,9.91
2018-03-08T23:24:46.886Z,9.93
2018-03-08T23:27:14.864Z,10.11
2018-03-08T23:29:42.860Z,10.05
2018-03-08T23:32:10.811Z,9.95
2018-03-08T23:34:38.720Z,9.93
2018-03-08T23:37:06.730Z,9.90
2018-03-08T23:39:34.942Z,9.83
2018-03-08T23:42:02.961Z,8.77
2018-03-08T23:44:30.917Z,8.31
2018-03-08T23:46:58.849Z,8.99
2018-03-08T23:49:26.753Z,9.40
2018-03-08T23:51:54.724Z,8.53
2018-03-08T23:54:22.684Z,8.14
2018-03-08T23:56:50.646Z,8.00
2018-03-08T23:59:18.609Z,9.04
